Orosi, California
Current Conditions -  °F | °C
As of 5:35 PM on Tuesday 25 Nov 2014 (Local Time) from KVIS Reporting Station
Clear Clear  
Wind Chill: 57°   Ceiling: Unl
Heat Index: 57°   Visibility: 7mi
Dew Point: 45°   Wind: 0mph
Humidity: 63%   Direction: NA
Pressure: 30.38"   Gusts: NA
Location:  36.55°N, 119.28°W
Report Text: KVIS 260135Z 00000KT 7SM CLR 14/07 A3038 RMK AO1
Loading
Personal Weather Stations






























Interactive Weather Map New forecast layout! Learn more

10-Day Weather Forecast

Advertisements
Track Severe Weather on mobile